This is the latest recevied weather packets stored in our database for station/object K9APR. If no packets are shown the sender has not sent any weather packets the latest 1 day(s).
| Time | Temp. | Humidity | Pressure | Rain* | Wind** | Luminosity | Snow |
|---|---|---|---|---|---|---|---|
| 1836274492 | 19.44° C | 72% | 1017.9 hPa | 0 mm | 0 m/s | - | - |
| 1836274280 | 19.44° C | 72% | 1017.9 hPa | 0 mm | 0 m/s | - | - |
| 1836273950 | 20° C | 70% | 1017.8 hPa | 0 mm | 0 m/s | - | - |
| 1778049143 | 6.11° C | 92% | 1009.3 hPa | 1.27 mm | 0 m/s | - | - |
| 1778048602 | 6.11° C | 92% | 1009.5 hPa | 1.78 mm | 0 m/s | - | - |
| 1778048061 | 6.11° C | 92% | 1009.7 hPa | 2.03 mm | 0 m/s | - | - |
| 1778047522 | 6.11° C | 92% | 1009.7 hPa | 2.03 mm | 0 m/s | - | - |
| 1778046981 | 6.11° C | 92% | 1009.7 hPa | 1.78 mm | 0 m/s | - | - |
| 1778046441 | 6.11° C | 92% | 1009.7 hPa | 2.03 mm | 0 m/s | - | - |
| 1778045907 | 6.67° C | 92% | 1009.6 hPa | 2.54 mm | 0 m/s | - | - |
| 1778045362 | 6.67° C | 92% | 1009.6 hPa | 2.79 mm | 0 m/s | - | - |
| 1778044823 | 6.67° C | 92% | 1009.5 hPa | 3.05 mm | 0.45 m/s, 312° | - | - |
| 1778044282 | 7.22° C | 92% | 1008.6 hPa | 3.56 mm | 0 m/s | - | - |
| 1778043741 | 7.22° C | 92% | 1008.5 hPa | 4.32 mm | 0 m/s | - | - |
| 1778043202 | 7.22° C | 92% | 1008.4 hPa | 0 mm | 0 m/s | - | - |
| 1778042662 | 7.22° C | 92% | 1008.8 hPa | 0 mm | 0.45 m/s, 286° | - | - |
| 1778042122 | 7.22° C | 92% | 1009.7 hPa | 0 mm | 0.45 m/s, 317° | - | - |
| 1778041581 | 7.78° C | 92% | 1009.4 hPa | 0 mm | 0 m/s | - | - |
| 1778041042 | 7.22° C | 92% | 1009.2 hPa | 0 mm | 0 m/s | - | - |
| 1778040502 | 7.22° C | 92% | 1009.1 hPa | 0 mm | 0 m/s | - | - |
| 1778039962 | 7.78° C | 92% | 1008.9 hPa | 0 mm | 0.45 m/s, 304° | - | - |
| 1778038882 | 7.78° C | 92% | 1008 hPa | 5.33 mm | 0.89 m/s, 97° | - | - |
| 1778038342 | 7.78° C | 92% | 1008.3 hPa | 5.33 mm | 0.45 m/s, 132° | - | - |
| 1778037802 | 7.78° C | 92% | 1008.8 hPa | 4.32 mm | 0.45 m/s, 144° | - | - |
| 1778037262 | 7.78° C | 92% | 1009.2 hPa | 2.79 mm | 0.45 m/s, 304° | - | - |
* Rain latest hour (hover to see other rain measurements)
** Current wind speed in m/s (hover to see current wind gust speed)